Time;durP1;ratioP1;P1;durP2;ratioP2;P2;SDS_P1;SDS_P2;PMS_P1;PMS_P2;Temp;Humidity;BMP_temperature;BMP_pressure;BME280_temperature;BME280_humidity;BME280_pressure;Samples;Min_cycle;Max_cycle;Signal;HPM_P1;HPM_P2
2021/10/19 00:01:16;;;;;;;;;;;;;;;22.25;30.22;98812.19;4947619;29;1702;-81
2021/10/19 00:03:42;;;;;;;;;;;;;;;22.32;30.43;98809.22;4961292;29;1028;-81
2021/10/19 00:06:09;;;;;;;;;;;;;;;22.01;31.12;98814.16;4975450;28;1032;-81
2021/10/19 00:08:35;;;;;;;;;;;;;;;21.94;31.22;98808.59;5038571;28;954;-81
2021/10/19 00:11:00;;;;;;;;;;;;;;;22.22;30.96;98811.00;5032529;28;1639;-81
2021/10/19 00:13:26;;;;;;;;;;;;;;;22.39;30.32;98814.00;5023220;28;1225;-81
2021/10/19 00:15:51;;;;;;;;;;;;;;;22.67;29.93;98815.50;5037427;28;1961;-81
2021/10/19 00:18:17;;;;;;;;;;;;;;;22.82;29.89;98811.97;5045773;28;917;-81
2021/10/19 00:20:42;;;;;;;;;;;;;;;22.92;29.63;98809.41;4986501;28;1570;-81
2021/10/19 00:23:07;;;;;;;;;;;;;;;22.70;29.77;98814.66;4984290;28;919;-81
2021/10/19 00:25:33;;;;;;;;;;;;;;;22.72;29.87;98812.19;4986912;28;958;-80
2021/10/19 00:27:58;;;;;;;;;;;;;;;23.05;28.75;98814.03;4985242;28;1044;-81
2021/10/19 00:30:24;;;;;;;;;;;;;;;22.75;29.02;98814.97;4986458;28;1657;-81
2021/10/19 00:32:50;;;;;;;;;;;;;;;22.40;29.74;98807.88;4985919;28;1028;-81
2021/10/19 00:35:15;;;;;;;;;;;;;;;22.52;29.61;98812.94;4985428;28;1958;-81
2021/10/19 00:37:41;;;;;;;;;;;;;;;22.19;30.17;98820.38;4985427;28;1752;-81
2021/10/19 00:40:07;;;;;;;;;;;;;;;22.25;30.12;98824.31;4984811;28;1594;-81
2021/10/19 00:42:35;;;;;;;;;;;;;;;22.35;30.20;98820.50;4985997;28;938;-80
2021/10/19 00:45:01;;;;;;;;;;;;;;;22.20;30.30;98824.00;4984171;28;1797;-81
2021/10/19 00:47:26;;;;;;;;;;;;;;;22.09;30.54;98819.28;4985703;28;908;-81
2021/10/19 00:49:51;;;;;;;;;;;;;;;22.14;30.56;98826.53;4982806;28;1531;-81
2021/10/19 00:52:17;;;;;;;;;;;;;;;22.21;30.67;98823.56;5032106;28;811;-81
2021/10/19 00:54:43;;;;;;;;;;;;;;;22.32;30.61;98827.03;5045296;28;1906;-81
2021/10/19 00:57:09;;;;;;;;;;;;;;;22.44;30.34;98827.69;5046600;28;916;-81
2021/10/19 00:59:36;;;;;;;;;;;;;;;22.57;30.28;98828.66;5045060;28;1540;-80
2021/10/19 01:02:03;;;;;;;;;;;;;;;22.66;29.72;98819.59;5045028;28;946;-80
2021/10/19 01:04:28;;;;;;;;;;;;;;;22.51;29.94;98824.72;5043451;28;1012;-81
2021/10/19 01:06:53;;;;;;;;;;;;;;;23.04;29.17;98834.31;5044579;28;941;-81
2021/10/19 01:09:19;;;;;;;;;;;;;;;23.00;29.21;98822.22;5023342;28;926;-81
2021/10/19 01:11:44;;;;;;;;;;;;;;;23.19;28.73;98821.44;5008414;28;1672;-81
2021/10/19 01:14:10;;;;;;;;;;;;;;;23.09;28.80;98819.59;5005840;28;1883;-81
2021/10/19 01:16:35;;;;;;;;;;;;;;;22.95;28.94;98825.56;5024819;28;1029;-81
2021/10/19 01:19:01;;;;;;;;;;;;;;;22.82;28.88;98817.66;5022673;28;939;-81
2021/10/19 01:21:26;;;;;;;;;;;;;;;22.57;29.14;98823.78;5024508;28;1632;-80
2021/10/19 01:23:51;;;;;;;;;;;;;;;22.42;29.64;98824.47;5023326;28;846;-81
2021/10/19 01:26:17;;;;;;;;;;;;;;;22.30;29.76;98821.00;5024927;28;994;-81
2021/10/19 01:28:42;;;;;;;;;;;;;;;22.41;29.64;98825.69;5022498;28;924;-81
2021/10/19 01:31:08;;;;;;;;;;;;;;;22.21;30.24;98823.56;5025283;28;1726;-81
2021/10/19 01:33:34;;;;;;;;;;;;;;;22.22;30.08;98825.16;4987837;28;1960;-81
2021/10/19 01:35:59;;;;;;;;;;;;;;;22.25;29.94;98824.31;4986780;28;994;-81
2021/10/19 01:38:26;;;;;;;;;;;;;;;21.90;30.77;98830.50;4982562;28;949;-81
2021/10/19 01:40:51;;;;;;;;;;;;;;;21.90;30.84;98831.31;5009844;28;1586;-80
2021/10/19 01:43:20;;;;;;;;;;;;;;;22.25;30.36;98829.19;5021257;28;946;-81
2021/10/19 01:45:49;;;;;;;;;;;;;;;22.35;30.18;98828.22;5025019;28;949;-81
2021/10/19 01:48:14;;;;;;;;;;;;;;;22.40;30.10;98821.25;5021607;28;954;-82
2021/10/19 01:50:40;;;;;;;;;;;;;;;22.68;29.60;98823.59;5024657;28;1755;-80
2021/10/19 01:53:06;;;;;;;;;;;;;;;22.79;29.30;98821.34;5022135;28;1008;-81
2021/10/19 01:55:32;;;;;;;;;;;;;;;22.25;30.09;98821.50;4991230;28;1891;-81
2021/10/19 01:57:57;;;;;;;;;;;;;;;23.14;29.03;98824.78;5022769;28;957;-81
2021/10/19 02:00:22;;;;;;;;;;;;;;;23.05;28.78;98831.06;5027220;28;1855;-81
2021/10/19 02:02:48;;;;;;;;;;;;;;;22.87;29.27;98825.66;5027613;28;1240;-81
2021/10/19 02:05:13;;;;;;;;;;;;;;;23.04;28.65;98817.28;5043071;28;1030;-81
2021/10/19 02:07:39;;;;;;;;;;;;;;;22.96;28.62;98822.31;5049530;28;914;-81
2021/10/19 02:10:05;;;;;;;;;;;;;;;22.75;28.97;98823.47;5030302;28;1577;-81
2021/10/19 02:12:30;;;;;;;;;;;;;;;22.48;29.41;98820.69;5030322;28;887;-81
2021/10/19 02:14:56;;;;;;;;;;;;;;;22.32;29.80;98818.53;5028071;28;1891;-81
2021/10/19 02:17:21;;;;;;;;;;;;;;;22.34;29.91;98830.25;5050188;28;921;-81
2021/10/19 02:19:47;;;;;;;;;;;;;;;22.30;29.92;98823.84;5047532;28;1603;-81
2021/10/19 02:22:12;;;;;;;;;;;;;;;22.02;30.59;98815.75;5046708;28;1007;-81
2021/10/19 02:24:38;;;;;;;;;;;;;;;22.21;29.95;98817.91;5047357;28;842;-81
2021/10/19 02:27:03;;;;;;;;;;;;;;;22.42;29.62;98821.63;5049353;28;881;-81
2021/10/19 02:29:29;;;;;;;;;;;;;;;22.24;29.91;98822.72;5046980;28;1697;-81
2021/10/19 02:31:54;;;;;;;;;;;;;;;22.33;30.07;98820.16;5026892;28;953;-81
2021/10/19 02:34:22;;;;;;;;;;;;;;;21.93;31.00;98827.63;5024465;28;1883;-81
2021/10/19 02:36:47;;;;;;;;;;;;;;;22.71;29.56;98819.91;4994526;28;1706;-81
2021/10/19 02:39:13;;;;;;;;;;;;;;;22.39;29.97;98823.31;5024768;28;1104;-81
2021/10/19 02:41:38;;;;;;;;;;;;;;;22.69;29.42;98828.06;5010006;28;973;-81
2021/10/19 02:44:04;;;;;;;;;;;;;;;22.43;30.05;98829.69;5024315;28;1722;-81
2021/10/19 02:46:31;;;;;;;;;;;;;;;22.85;29.26;98833.81;5027293;28;954;-81
2021/10/19 02:48:59;;;;;;;;;;;;;;;22.90;29.00;98840.25;5025495;28;970;-81
2021/10/19 02:51:25;;;;;;;;;;;;;;;23.00;29.21;98839.25;5027448;28;963;-81
2021/10/19 02:53:50;;;;;;;;;;;;;;;23.24;28.63;98843.63;5008554;28;1945;-81
2021/10/19 02:56:16;;;;;;;;;;;;;;;23.31;28.37;98840.69;5027057;28;963;-81
2021/10/19 02:58:41;;;;;;;;;;;;;;;23.10;28.73;98846.75;5024081;28;906;-81
2021/10/19 03:01:07;;;;;;;;;;;;;;;22.86;28.92;98846.78;5027760;28;1449;-81
2021/10/19 03:03:32;;;;;;;;;;;;;;;22.66;29.11;98848.75;5040531;28;1568;-80
2021/10/19 03:05:58;;;;;;;;;;;;;;;22.62;29.01;98848.00;5050715;28;899;-81
2021/10/19 03:08:23;;;;;;;;;;;;;;;22.52;29.34;98849.00;5046226;28;1004;-81
2021/10/19 03:10:49;;;;;;;;;;;;;;;22.51;29.47;98853.06;5049100;28;1753;-81
2021/10/19 03:13:14;;;;;;;;;;;;;;;22.43;29.44;98851.56;5010912;28;1715;-81
2021/10/19 03:15:40;;;;;;;;;;;;;;;22.47;29.47;98858.78;5047865;28;1882;-81
2021/10/19 03:18:05;;;;;;;;;;;;;;;22.24;29.69;98856.75;5047617;28;813;-81
2021/10/19 03:20:30;;;;;;;;;;;;;;;22.33;29.62;98859.03;5048682;28;1032;-81
2021/10/19 03:22:56;;;;;;;;;;;;;;;22.17;30.29;98864.53;5044000;28;1529;-81
2021/10/19 03:25:22;;;;;;;;;;;;;;;22.26;30.07;98865.63;5027585;28;903;-81
2021/10/19 03:27:47;;;;;;;;;;;;;;;22.35;29.87;98862.25;5027317;28;1023;-81
2021/10/19 03:30:12;;;;;;;;;;;;;;;22.00;30.34;98866.38;5026583;28;929;-80
2021/10/19 03:32:38;;;;;;;;;;;;;;;22.69;29.47;98864.94;5028282;28;1619;-81
2021/10/19 03:35:03;;;;;;;;;;;;;;;22.40;29.71;98867.44;5046969;28;1906;-81
2021/10/19 03:37:29;;;;;;;;;;;;;;;22.48;29.60;98870.94;5048548;28;924;-81
2021/10/19 03:39:54;;;;;;;;;;;;;;;22.55;29.79;98870.84;5047379;28;892;-82
2021/10/19 03:42:20;;;;;;;;;;;;;;;22.74;29.40;98870.13;5049219;28;861;-80
2021/10/19 03:44:45;;;;;;;;;;;;;;;23.07;28.58;98873.19;5028522;28;1591;-81
2021/10/19 03:47:10;;;;;;;;;;;;;;;23.23;28.60;98870.44;5027964;28;902;-81
2021/10/19 03:49:36;;;;;;;;;;;;;;;23.32;28.01;98876.34;5041871;28;1160;-82
2021/10/19 03:52:01;;;;;;;;;;;;;;;22.87;28.57;98870.28;5029134;28;950;-80
2021/10/19 03:54:27;;;;;;;;;;;;;;;22.46;29.50;98867.75;5041955;28;1882;-81
2021/10/19 03:56:52;;;;;;;;;;;;;;;22.42;29.30;98867.00;5044495;28;1555;-81
2021/10/19 03:59:17;;;;;;;;;;;;;;;22.54;29.44;98870.03;5046587;28;774;-81
2021/10/19 04:01:43;;;;;;;;;;;;;;;22.35;29.83;98867.91;5048075;28;1026;-81
2021/10/19 04:04:08;;;;;;;;;;;;;;;22.29;29.67;98873.28;5046059;28;1071;-80
2021/10/19 04:06:34;;;;;;;;;;;;;;;22.28;29.80;98879.38;5047848;28;843;-81
2021/10/19 04:08:59;;;;;;;;;;;;;;;22.16;30.14;98875.09;5045282;28;1069;-81
2021/10/19 04:11:25;;;;;;;;;;;;;;;22.22;29.63;98881.06;5047665;28;855;-81
2021/10/19 04:13:50;;;;;;;;;;;;;;;22.35;29.92;98879.25;5044840;28;1971;-80
2021/10/19 04:16:15;;;;;;;;;;;;;;;22.17;30.17;98888.03;5047214;28;1020;-81
2021/10/19 04:18:41;;;;;;;;;;;;;;;22.17;30.18;98890.06;5044607;28;777;-81
2021/10/19 04:21:06;;;;;;;;;;;;;;;22.29;29.79;98890.28;5047271;28;893;-81
2021/10/19 04:23:32;;;;;;;;;;;;;;;22.88;28.87;98894.59;5044894;28;822;-80
2021/10/19 04:25:57;;;;;;;;;;;;;;;22.77;29.31;98883.41;5048710;28;929;-81
2021/10/19 04:28:23;;;;;;;;;;;;;;;22.98;28.97;98890.78;5045273;28;887;-79
2021/10/19 04:30:50;;;;;;;;;;;;;;;22.91;28.98;98887.28;5043492;28;1194;-81
2021/10/19 04:33:15;;;;;;;;;;;;;;;22.91;28.73;98896.59;5043378;28;947;-81
2021/10/19 04:35:41;;;;;;;;;;;;;;;23.34;27.83;98893.75;5044984;28;1955;-81
2021/10/19 04:38:06;;;;;;;;;;;;;;;23.18;28.11;98899.34;5042873;28;914;-80
2021/10/19 04:40:32;;;;;;;;;;;;;;;23.11;28.69;98896.63;5043442;28;878;-80
2021/10/19 04:42:57;;;;;;;;;;;;;;;22.77;28.89;98906.13;5042504;28;974;-81
2021/10/19 04:45:23;;;;;;;;;;;;;;;22.60;29.16;98899.50;5043555;28;773;-80
2021/10/19 04:47:49;;;;;;;;;;;;;;;22.54;28.97;98906.13;5043706;28;1154;-80
2021/10/19 04:50:14;;;;;;;;;;;;;;;22.49;29.45;98912.28;5042821;28;966;-80
2021/10/19 04:52:40;;;;;;;;;;;;;;;22.36;29.31;98912.84;5001855;28;906;-80
2021/10/19 04:55:06;;;;;;;;;;;;;;;22.42;29.55;98913.16;5000985;28;1962;-81
2021/10/19 04:57:32;;;;;;;;;;;;;;;22.40;29.59;98912.00;5003055;28;925;-80
2021/10/19 04:59:58;;;;;;;;;;;;;;;22.26;29.80;98913.81;5000715;28;924;-80
2021/10/19 05:02:23;;;;;;;;;;;;;;;22.29;29.61;98921.47;5003135;28;1047;-81
2021/10/19 05:04:50;;;;;;;;;;;;;;;22.28;29.87;98931.22;5000925;28;1047;-80
2021/10/19 05:07:15;;;;;;;;;;;;;;;21.91;30.49;98931.28;5002831;28;1025;-80
2021/10/19 05:09:41;;;;;;;;;;;;;;;21.95;30.64;98934.88;5000607;28;888;-80
2021/10/19 05:12:06;;;;;;;;;;;;;;;22.34;29.90;98923.81;5002288;28;918;-80
2021/10/19 05:14:32;;;;;;;;;;;;;;;22.24;29.94;98941.78;5000357;28;1910;-81
2021/10/19 05:16:57;;;;;;;;;;;;;;;22.64;28.99;98930.66;5002644;28;1062;-81
2021/10/19 05:19:23;;;;;;;;;;;;;;;22.19;30.01;98942.28;4999802;28;1329;-80
2021/10/19 05:21:48;;;;;;;;;;;;;;;22.27;30.10;98949.44;5002605;28;865;-81
2021/10/19 05:24:13;;;;;;;;;;;;;;;23.05;28.92;98943.78;5031960;28;917;-80
2021/10/19 05:26:39;;;;;;;;;;;;;;;22.84;29.15;98944.91;5043224;28;1167;-80
2021/10/19 05:29:04;;;;;;;;;;;;;;;22.70;29.20;98945.97;5006386;28;1314;-80
2021/10/19 05:31:30;;;;;;;;;;;;;;;22.67;29.19;98952.47;5043592;28;1360;-80
2021/10/19 05:33:55;;;;;;;;;;;;;;;22.75;28.84;98953.19;5041118;28;1878;-81
2021/10/19 05:36:20;;;;;;;;;;;;;;;22.60;29.23;98959.09;5043465;28;1343;-81
2021/10/19 05:38:48;;;;;;;;;;;;;;;22.52;29.54;98962.44;5042022;28;1226;-80
2021/10/19 05:41:16;;;;;;;;;;;;;;;22.28;29.82;98965.22;5042674;28;1364;-80
2021/10/19 05:43:41;;;;;;;;;;;;;;;22.44;29.68;98966.63;5036233;28;1170;-80
2021/10/19 05:46:07;;;;;;;;;;;;;;;22.35;29.52;98970.78;5044224;28;885;-80
2021/10/19 05:48:32;;;;;;;;;;;;;;;22.35;29.80;98970.78;5041169;28;1066;-80
2021/10/19 05:50:58;;;;;;;;;;;;;;;22.19;30.26;98973.44;5044490;28;988;-80
2021/10/19 05:53:23;;;;;;;;;;;;;;;22.24;29.92;98978.66;5040117;28;1166;-80
2021/10/19 05:55:49;;;;;;;;;;;;;;;22.36;29.60;98980.91;5043279;28;1894;-80
2021/10/19 05:58:14;;;;;;;;;;;;;;;22.02;30.48;98985.78;5040221;28;1340;-80
2021/10/19 06:00:39;;;;;;;;;;;;;;;22.22;30.31;98989.59;5042946;28;1217;-80
2021/10/19 06:03:05;;;;;;;;;;;;;;;22.58;29.71;98992.72;5040319;28;1193;-80
2021/10/19 06:05:30;;;;;;;;;;;;;;;22.33;30.21;98995.94;5042261;28;1272;-80
2021/10/19 06:07:56;;;;;;;;;;;;;;;22.86;29.32;99002.84;5042530;28;949;-79
2021/10/19 06:10:21;;;;;;;;;;;;;;;22.87;29.33;99007.28;5000913;28;985;-79
2021/10/19 06:12:47;;;;;;;;;;;;;;;22.70;29.52;99008.38;5001350;28;985;-79
2021/10/19 06:15:14;;;;;;;;;;;;;;;22.92;29.19;99008.06;5000500;28;1922;-80
2021/10/19 06:17:40;;;;;;;;;;;;;;;23.08;28.89;99011.84;5001787;28;891;-79
2021/10/19 06:20:05;;;;;;;;;;;;;;;22.95;28.96;99018.53;5000421;28;969;-78
2021/10/19 06:22:31;;;;;;;;;;;;;;;22.97;28.61;99021.78;4999628;28;1403;-79
2021/10/19 06:24:56;;;;;;;;;;;;;;;22.93;28.63;99033.19;4999908;28;923;-80
2021/10/19 06:27:22;;;;;;;;;;;;;;;22.64;29.13;99027.13;5002905;28;883;-79
2021/10/19 06:29:47;;;;;;;;;;;;;;;22.32;29.65;99041.72;5000709;28;978;-79
2021/10/19 06:32:12;;;;;;;;;;;;;;;22.26;30.20;99041.38;5002830;28;850;-79
2021/10/19 06:34:38;;;;;;;;;;;;;;;22.25;30.21;99033.31;5000509;28;1952;-80
2021/10/19 06:37:03;;;;;;;;;;;;;;;22.23;30.33;99041.44;5000669;28;918;-77
2021/10/19 06:39:29;;;;;;;;;;;;;;;22.43;30.00;99033.06;4994663;28;1028;-79
2021/10/19 06:41:55;;;;;;;;;;;;;;;22.44;29.96;99040.38;5010922;28;956;-80
2021/10/19 06:44:20;;;;;;;;;;;;;;;22.29;30.17;99046.22;5019808;28;980;-80
2021/10/19 06:46:46;;;;;;;;;;;;;;;22.28;30.34;99044.63;5006322;28;1286;-79
2021/10/19 06:49:13;;;;;;;;;;;;;;;22.32;30.16;99045.34;5023546;28;970;-78
2021/10/19 06:51:39;;;;;;;;;;;;;;;21.72;31.95;99037.56;5024432;28;1067;-79
2021/10/19 06:54:04;;;;;;;;;;;;;;;22.20;30.90;99045.94;5022747;28;1965;-79
2021/10/19 06:56:30;;;;;;;;;;;;;;;22.11;31.21;99042.78;5025311;28;989;-79
2021/10/19 06:58:55;;;;;;;;;;;;;;;22.45;30.41;99041.97;5023159;28;901;-79
2021/10/19 07:01:21;;;;;;;;;;;;;;;22.88;29.90;99047.84;5024791;28;930;-79
2021/10/19 07:03:46;;;;;;;;;;;;;;;23.23;29.14;99040.81;5023158;28;909;-79
2021/10/19 07:06:12;;;;;;;;;;;;;;;23.08;29.49;99045.09;5025455;28;1017;-80
2021/10/19 07:08:38;;;;;;;;;;;;;;;23.31;28.97;99050.00;5022738;28;1076;-80
2021/10/19 07:11:03;;;;;;;;;;;;;;;23.03;29.52;99049.22;5025840;28;975;-80
2021/10/19 07:13:29;;;;;;;;;;;;;;;23.04;28.95;99055.72;5038804;28;1083;-79
2021/10/19 07:15:55;;;;;;;;;;;;;;;22.63;29.52;99059.53;5047629;28;1894;-79
2021/10/19 07:18:21;;;;;;;;;;;;;;;22.46;30.08;99061.38;5044517;28;937;-79
2021/10/19 07:20:46;;;;;;;;;;;;;;;22.47;29.60;99059.34;4996940;28;1091;-79
2021/10/19 07:23:11;;;;;;;;;;;;;;;22.42;30.27;99065.50;5044958;28;1008;-79
2021/10/19 07:25:38;;;;;;;;;;;;;;;22.48;30.03;99064.59;5047386;28;891;-80
2021/10/19 07:28:03;;;;;;;;;;;;;;;22.28;30.29;99060.81;5010764;28;954;-80
2021/10/19 07:30:29;;;;;;;;;;;;;;;22.18;30.39;99073.91;5046661;28;858;-80
2021/10/19 07:32:55;;;;;;;;;;;;;;;22.25;30.12;99076.63;5046063;28;933;-80
2021/10/19 07:35:22;;;;;;;;;;;;;;;22.31;30.12;99082.66;5045553;28;1957;-79
2021/10/19 07:37:47;;;;;;;;;;;;;;;22.27;30.07;99082.69;5011819;28;1034;-79
2021/10/19 07:40:14;;;;;;;;;;;;;;;21.74;31.76;99083.25;5045128;28;916;-79
2021/10/19 07:42:40;;;;;;;;;;;;;;;22.38;30.57;99087.41;5045348;28;967;-79
2021/10/19 07:45:08;;;;;;;;;;;;;;;22.86;29.75;99073.78;5044670;28;817;-80
2021/10/19 07:47:37;;;;;;;;;;;;;;;23.02;29.39;99080.91;5028367;28;1486;-79
2021/10/19 07:50:03;;;;;;;;;;;;;;;22.95;29.43;99086.66;5044247;28;1031;-80
2021/10/19 07:52:28;;;;;;;;;;;;;;;22.42;30.21;99076.84;5046712;28;960;-80
2021/10/19 07:54:54;;;;;;;;;;;;;;;22.82;29.76;99084.38;5044505;28;1894;-80
2021/10/19 07:57:21;;;;;;;;;;;;;;;22.94;29.35;99083.03;5046360;28;862;-80
2021/10/19 07:59:46;;;;;;;;;;;;;;;23.04;29.35;99079.22;5041759;28;979;-80
2021/10/19 08:02:12;;;;;;;;;;;;;;;22.99;29.04;99084.56;5046864;28;822;-79
2021/10/19 08:04:37;;;;;;;;;;;;;;;22.80;29.20;99084.03;5044304;28;1111;-80
2021/10/19 08:07:04;;;;;;;;;;;;;;;22.46;29.92;99088.94;5046851;28;894;-80
2021/10/19 08:09:29;;;;;;;;;;;;;;;22.30;30.05;99087.50;5044362;28;1411;-80
2021/10/19 08:11:55;;;;;;;;;;;;;;;22.44;29.76;99080.06;5046167;28;882;-80
2021/10/19 08:14:20;;;;;;;;;;;;;;;22.42;29.88;99085.34;5043972;28;1895;-80
2021/10/19 08:16:46;;;;;;;;;;;;;;;22.45;30.09;99087.34;5045793;28;1483;-79
2021/10/19 08:19:11;;;;;;;;;;;;;;;22.24;30.31;99080.72;5042786;28;1197;-79
2021/10/19 08:21:37;;;;;;;;;;;;;;;22.17;30.48;99083.63;5043786;28;1205;-79
2021/10/19 08:24:02;;;;;;;;;;;;;;;22.26;30.35;99091.63;5042025;28;1197;-79
2021/10/19 08:26:31;;;;;;;;;;;;;;;22.17;30.57;99089.28;5044035;28;1301;-79
2021/10/19 08:28:57;;;;;;;;;;;;;;;22.20;30.63;99088.44;5042093;28;1272;-79
2021/10/19 08:31:22;;;;;;;;;;;;;;;22.11;31.29;99093.81;5000488;28;1222;-79
2021/10/19 08:33:50;;;;;;;;;;;;;;;22.01;31.00;99089.84;5041644;28;1170;-79
2021/10/19 08:36:15;;;;;;;;;;;;;;;22.10;30.98;99103.50;5043882;28;1297;-79
2021/10/19 08:38:41;;;;;;;;;;;;;;;22.42;30.64;99100.31;5041576;28;1193;-80
2021/10/19 08:41:07;;;;;;;;;;;;;;;22.20;30.79;99099.78;5044320;28;1284;-80
2021/10/19 08:43:32;;;;;;;;;;;;;;;22.91;29.92;99103.75;5041975;28;1409;-80
2021/10/19 08:45:58;;;;;;;;;;;;;;;22.92;29.88;99104.56;5045978;28;1198;-80
2021/10/19 08:48:23;;;;;;;;;;;;;;;22.92;29.91;99098.88;5041748;28;1177;-81
2021/10/19 08:50:48;;;;;;;;;;;;;;;23.22;29.09;99101.66;5045941;28;1408;-80
2021/10/19 08:53:14;;;;;;;;;;;;;;;22.86;29.54;99096.50;5049419;28;1300;-80
2021/10/19 08:55:39;;;;;;;;;;;;;;;22.59;29.94;99098.50;5045214;28;1980;-80
2021/10/19 08:58:10;;;;;;;;;;;;;;;22.48;29.82;99097.81;5043501;28;1135;-80
2021/10/19 09:00:35;;;;;;;;;;;;;;;22.15;30.49;99100.25;4993915;28;1041;-80
2021/10/19 09:03:01;;;;;;;;;;;;;;;22.21;30.58;99095.72;5043410;28;914;-81
2021/10/19 09:05:27;;;;;;;;;;;;;;;22.06;30.65;99085.75;5006232;28;898;-80
2021/10/19 09:07:59;;;;;;;;;;;;;;;22.27;30.41;99088.34;5025886;28;921;-80
2021/10/19 09:10:35;;;;;;;;;;;;;;;22.17;30.42;99083.63;5025772;28;826;-81
2021/10/19 09:13:01;;;;;;;;;;;;;;;22.19;30.55;99086.84;5025535;28;875;-80
2021/10/19 09:15:27;;;;;;;;;;;;;;;22.19;30.38;99080.38;5044250;28;1914;-80
2021/10/19 09:17:53;;;;;;;;;;;;;;;22.48;30.17;99086.47;5043481;28;895;-80
2021/10/19 09:20:19;;;;;;;;;;;;;;;22.80;29.96;99081.19;4982054;28;1056;-80
2021/10/19 09:22:57;;;;;;;;;;;;;;;22.79;29.82;99090.91;4982711;28;1197;-80
2021/10/19 09:25:23;;;;;;;;;;;;;;;22.78;30.09;99083.63;4982614;28;1017;-80
2021/10/19 09:27:49;;;;;;;;;;;;;;;22.80;29.82;99075.50;4943839;29;999;-80
2021/10/19 09:30:14;;;;;;;;;;;;;;;22.72;30.05;99068.31;4943414;29;1021;-81
2021/10/19 09:32:48;;;;;;;;;;;;;;;22.94;29.87;99079.38;4925356;29;897;-81
2021/10/19 09:35:19;;;;;;;;;;;;;;;22.69;30.07;99074.88;4924364;29;2001;-81
2021/10/19 09:37:54;;;;;;;;;;;;;;;23.08;29.39;99070.66;4925094;29;970;-80
2021/10/19 09:40:27;;;;;;;;;;;;;;;22.81;29.54;99068.59;4924420;29;1133;-80
2021/10/19 09:42:57;;;;;;;;;;;;;;;22.68;29.99;99067.56;4908151;29;956;-81
2021/10/19 09:45:24;;;;;;;;;;;;;;;22.59;29.98;99072.97;4925578;29;1293;-80
2021/10/19 09:47:50;;;;;;;;;;;;;;;22.03;30.67;99061.09;4925180;29;1036;-80
2021/10/19 09:50:15;;;;;;;;;;;;;;;22.38;30.23;99067.56;4907880;29;1043;-80
2021/10/19 09:52:41;;;;;;;;;;;;;;;22.46;30.23;99057.75;4944232;29;1019;-80
2021/10/19 09:55:11;;;;;;;;;;;;;;;22.30;30.54;99064.84;4926297;29;1978;-80
2021/10/19 09:57:38;;;;;;;;;;;;;;;22.32;30.36;99051.03;4928504;29;829;-80
2021/10/19 10:00:03;;;;;;;;;;;;;;;22.12;30.91;99064.22;4960918;29;1080;-80
2021/10/19 10:02:37;;;;;;;;;;;;;;;22.21;30.67;99053.19;4963788;28;1274;-80
2021/10/19 10:05:04;;;;;;;;;;;;;;;22.19;30.61;99054.88;4996484;28;1243;-80
2021/10/19 10:07:30;;;;;;;;;;;;;;;22.22;30.64;99048.31;5002005;28;1286;-80
2021/10/19 10:09:56;;;;;;;;;;;;;;;22.22;30.96;99049.13;4983473;28;1388;-80
2021/10/19 10:12:28;;;;;;;;;;;;;;;21.94;31.72;99046.63;4976394;28;1298;-80
2021/10/19 10:14:53;;;;;;;;;;;;;;;22.20;31.46;99039.44;4975385;28;1995;-80
2021/10/19 10:17:19;;;;;;;;;;;;;;;22.36;31.01;99034.78;4972168;28;1259;-81
2021/10/19 10:19:44;;;;;;;;;;;;;;;22.98;29.93;99044.03;4972458;28;1291;-81
2021/10/19 10:22:16;;;;;;;;;;;;;;;22.80;30.50;99035.78;5000032;28;1386;-78
2021/10/19 10:24:42;;;;;;;;;;;;;;;23.03;30.06;99042.75;5003373;28;1254;-79
2021/10/19 10:27:16;;;;;;;;;;;;;;;22.87;30.10;99032.81;4989193;28;1231;-78
2021/10/19 10:29:43;;;;;;;;;;;;;;;22.98;29.64;99034.72;4972642;28;1255;-79
2021/10/19 10:32:21;;;;;;;;;;;;;;;22.60;29.96;99029.19;4939070;29;1410;-80
2021/10/19 10:34:47;;;;;;;;;;;;;;;22.40;30.32;99033.94;4936931;29;1981;-80
2021/10/19 10:37:12;;;;;;;;;;;;;;;22.33;30.32;99024.31;4935957;29;1358;-80
2021/10/19 10:39:46;;;;;;;;;;;;;;;22.19;30.63;99030.16;4936683;29;1337;-80
2021/10/19 10:42:11;;;;;;;;;;;;;;;22.29;30.56;99029.22;4933391;29;1382;-80
2021/10/19 10:44:37;;;;;;;;;;;;;;;22.22;30.63;99023.63;4937243;29;1193;-80
2021/10/19 10:47:04;;;;;;;;;;;;;;;22.27;30.53;99020.31;4947256;29;899;-80
2021/10/19 10:49:29;;;;;;;;;;;;;;;22.41;30.31;99032.69;4944503;28;1016;-80
2021/10/19 10:51:54;;;;;;;;;;;;;;;22.30;30.34;99027.97;4947130;29;982;-80
2021/10/19 10:54:20;;;;;;;;;;;;;;;22.21;30.47;99027.69;4945136;29;1968;-80
2021/10/19 10:56:47;;;;;;;;;;;;;;;22.19;30.48;99027.31;4947258;29;931;-80
2021/10/19 10:59:22;;;;;;;;;;;;;;;22.25;30.39;99028.44;4945448;29;996;-80
2021/10/19 11:01:47;;;;;;;;;;;;;;;22.14;31.34;99029.81;4985006;28;1165;-80
2021/10/19 11:04:12;;;;;;;;;;;;;;;22.16;31.09;99025.31;5020873;28;1009;-80
2021/10/19 11:06:39;;;;;;;;;;;;;;;22.45;30.55;99027.78;5024149;28;961;-81
2021/10/19 11:09:11;;;;;;;;;;;;;;;22.49;30.72;99022.88;5023079;28;1044;-79
2021/10/19 11:11:38;;;;;;;;;;;;;;;22.52;30.87;99028.47;5008694;28;967;-79
2021/10/19 11:14:05;;;;;;;;;;;;;;;22.84;29.98;99019.47;5022357;28;1910;-78
2021/10/19 11:16:39;;;;;;;;;;;;;;;22.66;30.59;99016.13;4984995;28;1385;-79
2021/10/19 11:19:06;;;;;;;;;;;;;;;22.77;30.31;99013.94;4982813;28;1101;-78
2021/10/19 11:21:32;;;;;;;;;;;;;;;23.04;29.37;99010.28;4945958;29;1106;-79
2021/10/19 11:23:57;;;;;;;;;;;;;;;23.00;29.29;99015.22;4944376;29;1085;-78
2021/10/19 11:26:23;;;;;;;;;;;;;;;22.70;29.63;99002.69;4946122;29;890;-79
2021/10/19 11:28:48;;;;;;;;;;;;;;;22.23;30.55;99002.56;4928653;29;928;-79
2021/10/19 11:31:14;;;;;;;;;;;;;;;22.42;30.07;99005.94;4946494;29;942;-78
2021/10/19 11:33:40;;;;;;;;;;;;;;;22.40;30.20;99005.56;4942644;29;1007;-79
2021/10/19 11:36:06;;;;;;;;;;;;;;;22.24;30.46;99006.19;4946623;29;1910;-79
2021/10/19 11:38:32;;;;;;;;;;;;;;;22.27;30.29;99003.28;4943314;29;1015;-78
2021/10/19 11:41:24;;;;;;;;;;;;;;;22.16;30.38;99002.63;4947421;29;1026;-78
2021/10/19 11:43:50;;;;;;;;;;;;;;;22.11;30.44;98994.59;4888125;29;1084;-79
2021/10/19 11:46:16;;;;;;;;;;;;;;;22.22;30.09;98995.25;4889849;29;1174;-79
2021/10/19 11:48:42;;;;;;;;;;;;;;;22.20;30.39;98989.22;4943978;29;1058;-79
2021/10/19 11:51:11;;;;;;;;;;;;;;;22.05;30.57;98999.91;4945653;29;1000;-78
2021/10/19 11:53:36;;;;;;;;;;;;;;;22.39;30.70;98989.81;4980410;28;896;-78
2021/10/19 11:56:04;;;;;;;;;;;;;;;22.11;31.13;98994.59;4984640;28;1879;-78
2021/10/19 11:58:29;;;;;;;;;;;;;;;22.16;31.02;98991.31;4981433;28;839;-78
2021/10/19 12:00:56;;;;;;;;;;;;;;;22.51;30.44;98994.88;4985404;28;999;-78
2021/10/19 12:03:27;;;;;;;;;;;;;;;22.63;30.49;98997.13;4926925;29;977;-79
2021/10/19 12:05:53;;;;;;;;;;;;;;;22.40;30.71;98992.19;4907447;29;1087;-79
2021/10/19 12:08:18;;;;;;;;;;;;;;;23.11;29.44;98998.84;4904759;29;1023;-79
2021/10/19 12:10:47;;;;;;;;;;;;;;;22.67;30.05;98997.88;4908001;29;927;-78
2021/10/19 12:13:15;;;;;;;;;;;;;;;22.74;29.92;98991.28;4904935;29;874;-79
2021/10/19 12:15:41;;;;;;;;;;;;;;;22.85;29.53;98991.94;4907449;29;1898;-79
2021/10/19 12:18:07;;;;;;;;;;;;;;;22.73;29.44;98996.16;4905688;29;1163;-79
2021/10/19 12:20:34;;;;;;;;;;;;;;;22.47;29.80;99000.59;4925707;29;1276;-79
2021/10/19 12:23:00;;;;;;;;;;;;;;;22.44;30.03;99001.47;4925088;29;1069;-79
2021/10/19 12:25:26;;;;;;;;;;;;;;;22.40;30.06;99000.72;4925190;29;900;-79
2021/10/19 12:27:51;;;;;;;;;;;;;;;22.32;30.04;98999.97;4924692;29;1029;-79
2021/10/19 12:30:17;;;;;;;;;;;;;;;22.14;30.68;99010.78;4924894;29;1078;-79
2021/10/19 12:32:42;;;;;;;;;;;;;;;22.26;30.16;99010.19;4925744;29;978;-79
2021/10/19 12:35:08;;;;;;;;;;;;;;;22.11;30.33;99011.63;4956040;29;1911;-79
2021/10/19 12:37:34;;;;;;;;;;;;;;;22.13;30.39;99014.84;5010087;28;762;-78
2021/10/19 12:40:00;;;;;;;;;;;;;;;22.28;30.01;99018.31;4987623;28;897;-79
2021/10/19 12:42:25;;;;;;;;;;;;;;;21.87;31.38;99018.38;5022441;28;985;-79
2021/10/19 12:44:50;;;;;;;;;;;;;;;22.21;30.99;99016.34;5019503;28;934;-79
2021/10/19 12:47:16;;;;;;;;;;;;;;;22.74;29.85;99014.81;5022018;28;1080;-79
2021/10/19 12:49:41;;;;;;;;;;;;;;;22.70;29.78;99018.94;5020284;28;1147;-79
2021/10/19 12:52:07;;;;;;;;;;;;;;;22.44;30.28;99015.66;5022219;28;983;-79
2021/10/19 12:54:32;;;;;;;;;;;;;;;22.76;29.77;99020.84;5035229;28;1997;-79